Perry, NY (14530)

8:06 AM EDT on April 28, 2015 (GMT -0400)
The Center Perry | | Change Station
CLOSE
Current Station
Personal Weather Station
Location: Perry, NY
Elevation: 1358 ft
Nearby Weather Stations

Elev 1358 ft 42.72 °N, 78.00 °W | Updated 14 minutes ago

Partly Cloudy
Partly Cloudy
44.4 °F
Feels Like 41 °F
N
5.8
Wind Variable Wind from West

Today
High -- | Low -- °F
--% Chance of Precip.
Yesterday
High -- | Low -- °F
Precip. -- in
6:11 AM 8:08 PM
Waxing Gibbous, 73% visible
Pressure 30.03 in
Visibility 10.0 miles
Clouds Clear
Windchill 41 °F
Dew Point 37 °F
Humidity 75%
Rainfall 0.00 in
Snow Depth Not available.
UV 1 out of 12
Pollen 8.80 out of 12
Air Quality Not available.
Flu Activity Widespread
METAR KDSV 281154Z AUTO 00000KT 10SM CLR 07/04 A2999 RMK AO2 SLP168 60001 70002 T00720039 10072 20033 53010

More Conditions Fewer Conditions

Pressure 30.03 in
Visibility 10.0 miles
Clouds Clear
Windchill 41 °F
Dew Point 37 °F
Humidity 75%
Rainfall 0.00 in
Snow Depth Not available.
UV 1 out of 12
Pollen 8.80 out of 12
Air Quality Not available.
Flu Activity Widespread
METAR KDSV 281154Z AUTO 00000KT 10SM CLR 07/04 A2999 RMK AO2 SLP168 60001 70002 T00720039 10072 20033 53010

More Conditions Fewer Conditions

10-Day Weather Forecast

Almanac

Astronomy

Apr. 28, 2015 Rise Set
Actual Time
Civil Twilight
Nautical Twilight
Astronomical Twilight
Moon
Length of Visible Light
Length of Day
Tomorrow will be .
, % of the Moon is Illuminated

Today's Extremes

State Highs State Lows

Community

WunderPhotos

Upload Photos

1,817,613 photos uploaded!

WunderBlogs® & News

Nearby

Air Quality

  Air Quality AQ Index Pollutant
Not available.

Snow Depth

Station Depth Elevation

Earthquake Activity

City Distance Mag. Time & Date
Minimum magnitude displayed is 2.5.

Coastal Water Temperatures

Place Temperature

Stations

Nearby Weather Stations

Station Location Temp. Windchill Dew Point Humidity Wind Precip. Elev Updated Type